createdAt,value
2019-03-26T00:00:00.685Z,85.53
2019-03-26T00:01:00.663Z,85.15
2019-03-26T00:02:00.637Z,84.86
2019-03-26T00:03:00.618Z,85.15
2019-03-26T00:04:05.999Z,85.81
2019-03-26T00:05:00.568Z,85.24
2019-03-26T00:06:00.544Z,84.58
2019-03-26T00:07:00.519Z,85.15
2019-03-26T00:08:00.495Z,85.53
2019-03-26T00:09:00.472Z,84.95
2019-03-26T00:10:00.468Z,84.77
2019-03-26T00:11:00.428Z,84.86
2019-03-26T00:12:00.403Z,85.72
2019-03-26T00:13:00.383Z,85.72
2019-03-26T00:14:00.356Z,85.05
2019-03-26T00:15:00.482Z,85.15
2019-03-26T00:16:00.308Z,85.34
2019-03-26T00:17:00.288Z,85.62
2019-03-26T00:18:00.264Z,84.86
2019-03-26T00:19:00.239Z,84.95
2019-03-26T00:20:00.355Z,85.72
2019-03-26T00:21:00.188Z,85.43
2019-03-26T00:22:00.166Z,85.72
2019-03-26T00:23:00.143Z,84.86
2019-03-26T00:24:00.118Z,84.72
2019-03-26T00:25:00.249Z,85.43
2019-03-26T00:26:00.074Z,85.72
2019-03-26T00:27:00.047Z,85.62
2019-03-26T00:28:00.026Z,85.62
2019-03-26T00:29:00.001Z,85.49
2019-03-26T00:29:59.978Z,84.72
2019-03-26T00:31:00.002Z,84.86
2019-03-26T00:31:59.933Z,84.91
2019-03-26T00:32:59.910Z,85.49
2019-03-26T00:33:59.882Z,84.91
2019-03-26T00:34:59.858Z,85.49
2019-03-26T00:35:59.834Z,85.39
2019-03-26T00:36:59.813Z,85.49
2019-03-26T00:37:59.789Z,85.30
2019-03-26T00:38:59.796Z,85.58
2019-03-26T00:39:59.746Z,85.39
2019-03-26T00:40:59.714Z,85.49
2019-03-26T00:41:59.692Z,85.30
2019-03-26T00:42:59.668Z,85.39
2019-03-26T00:43:59.645Z,85.58
2019-03-26T00:44:59.631Z,85.30
2019-03-26T00:45:59.604Z,85.39
2019-03-26T00:46:59.581Z,85.39
2019-03-26T00:47:59.552Z,85.39
2019-03-26T00:48:59.527Z,85.30
2019-03-26T00:49:59.571Z,85.49
2019-03-26T00:50:59.480Z,85.49
2019-03-26T00:51:59.457Z,85.58
2019-03-26T00:52:59.438Z,85.49
2019-03-26T00:53:59.413Z,85.49
2019-03-26T00:54:59.393Z,85.49
2019-03-26T00:55:59.366Z,85.49
2019-03-26T00:56:59.341Z,85.39
2019-03-26T00:58:01.660Z,85.58
2019-03-26T00:58:59.290Z,85.30
2019-03-26T00:59:59.267Z,85.49
2019-03-26T01:00:59.259Z,85.68
2019-03-26T01:01:59.261Z,85.58
2019-03-26T01:02:59.244Z,85.49
2019-03-26T01:03:59.208Z,85.49
2019-03-26T01:04:59.210Z,85.49
2019-03-26T01:05:59.139Z,85.39
2019-03-26T01:06:59.128Z,85.58
2019-03-26T01:07:59.147Z,85.49
2019-03-26T01:08:59.056Z,85.68
2019-03-26T01:09:59.030Z,85.39
2019-03-26T01:10:59.007Z,85.58
2019-03-26T01:11:58.992Z,85.49
2019-03-26T01:12:58.963Z,85.68
2019-03-26T01:13:58.936Z,85.58
2019-03-26T01:14:58.918Z,85.30
2019-03-26T01:15:58.902Z,85.58
2019-03-26T01:16:58.865Z,85.49
2019-03-26T01:17:58.843Z,85.86
2019-03-26T01:18:58.823Z,85.58
2019-03-26T01:19:58.796Z,85.68
2019-03-26T01:20:58.770Z,85.49
2019-03-26T01:21:58.747Z,85.68
2019-03-26T01:22:58.754Z,85.86
2019-03-26T01:23:58.721Z,84.91
2019-03-26T01:24:58.676Z,85.58
2019-03-26T01:25:58.655Z,85.39
2019-03-26T01:26:58.631Z,85.68
2019-03-26T01:27:58.605Z,85.49
2019-03-26T01:28:58.583Z,85.58
2019-03-26T01:29:58.564Z,85.49
2019-03-26T01:30:58.549Z,85.49
2019-03-26T01:31:58.512Z,85.68
2019-03-26T01:32:58.491Z,85.86
2019-03-26T01:33:58.466Z,85.96
2019-03-26T01:34:58.438Z,85.68
2019-03-26T01:35:58.418Z,85.77
2019-03-26T01:36:58.395Z,85.20
2019-03-26T01:37:58.369Z,85.39
2019-03-26T01:38:58.348Z,84.91
2019-03-26T01:39:58.358Z,85.77
2019-03-26T01:40:58.302Z,84.91
2019-03-26T01:41:58.276Z,85.30
2019-03-26T01:42:58.251Z,85.58
2019-03-26T01:43:58.231Z,85.77
2019-03-26T01:44:58.208Z,85.20
2019-03-26T01:45:58.181Z,84.82
2019-03-26T01:46:58.161Z,84.91
2019-03-26T01:47:58.134Z,85.20
2019-03-26T01:48:58.109Z,85.58
2019-03-26T01:49:58.086Z,85.30
2019-03-26T01:50:58.065Z,85.86
2019-03-26T01:51:58.108Z,85.01
2019-03-26T01:52:58.013Z,85.20
2019-03-26T01:53:57.990Z,85.11
2019-03-26T01:54:57.965Z,85.68
2019-03-26T01:55:57.946Z,85.68
2019-03-26T01:56:57.920Z,85.49
2019-03-26T01:57:57.898Z,85.58
2019-03-26T01:58:57.879Z,85.49
2019-03-26T01:59:57.855Z,85.77
2019-03-26T02:00:57.831Z,85.68
2019-03-26T02:01:57.800Z,85.86
2019-03-26T02:02:57.778Z,85.68
2019-03-26T02:03:57.750Z,84.91
2019-03-26T02:05:00.205Z,85.39
2019-03-26T02:05:57.705Z,85.68
2019-03-26T02:06:57.680Z,85.86
2019-03-26T02:07:57.658Z,85.58
2019-03-26T02:08:57.636Z,85.01
2019-03-26T02:09:57.626Z,85.39
2019-03-26T02:10:57.596Z,84.91
2019-03-26T02:11:57.561Z,85.68
2019-03-26T02:12:57.552Z,85.68
2019-03-26T02:13:57.515Z,84.63
2019-03-26T02:14:57.491Z,85.39
2019-03-26T02:15:57.466Z,85.68
2019-03-26T02:16:57.441Z,85.68
2019-03-26T02:17:57.417Z,85.39
2019-03-26T02:18:57.394Z,85.49
2019-03-26T02:19:57.368Z,85.39
2019-03-26T02:20:57.346Z,85.68
2019-03-26T02:21:57.327Z,85.49
2019-03-26T02:22:57.382Z,85.58
2019-03-26T02:23:57.274Z,85.96
2019-03-26T02:24:57.258Z,85.77
2019-03-26T02:25:57.231Z,85.16
2019-03-26T02:26:57.205Z,85.63
2019-03-26T02:27:57.178Z,85.44
2019-03-26T02:28:57.155Z,85.63
2019-03-26T02:29:57.131Z,85.63
2019-03-26T02:30:57.111Z,85.72
2019-03-26T02:31:57.084Z,85.53
2019-03-26T02:32:57.061Z,85.44
2019-03-26T02:33:57.039Z,85.58
2019-03-26T02:34:57.010Z,85.53
2019-03-26T02:35:56.987Z,85.58
2019-03-26T02:36:56.962Z,85.49
2019-03-26T02:37:56.959Z,85.53
2019-03-26T02:38:56.910Z,85.86
2019-03-26T02:39:56.892Z,85.68
2019-03-26T02:40:56.864Z,85.39
2019-03-26T02:41:56.847Z,85.49
2019-03-26T02:42:56.817Z,85.77
2019-03-26T02:43:56.804Z,85.58
2019-03-26T02:44:56.767Z,85.96
2019-03-26T02:45:56.742Z,85.30
2019-03-26T02:46:56.727Z,85.86
2019-03-26T02:47:56.715Z,85.39
2019-03-26T02:48:56.676Z,85.58
2019-03-26T02:49:56.660Z,85.30
2019-03-26T02:50:56.621Z,85.77
2019-03-26T02:51:56.604Z,85.39
2019-03-26T02:52:56.584Z,85.86
2019-03-26T02:53:56.557Z,84.91
2019-03-26T02:54:56.530Z,85.01
2019-03-26T02:55:56.504Z,85.01
2019-03-26T02:56:56.478Z,85.11
2019-03-26T02:57:56.455Z,85.86
2019-03-26T02:58:56.429Z,84.91
2019-03-26T02:59:56.407Z,85.77
2019-03-26T03:00:56.384Z,85.49
2019-03-26T03:01:56.371Z,85.30
2019-03-26T03:02:56.345Z,85.77
2019-03-26T03:03:56.311Z,85.68
2019-03-26T03:04:56.285Z,86.05
2019-03-26T03:05:56.265Z,85.86
2019-03-26T03:06:56.238Z,85.20
2019-03-26T03:07:56.216Z,85.68
2019-03-26T03:08:56.194Z,84.91
2019-03-26T03:09:56.167Z,85.11
2019-03-26T03:10:56.147Z,85.01
2019-03-26T03:11:56.127Z,85.11
2019-03-26T03:12:56.092Z,85.30
2019-03-26T03:13:56.076Z,85.20
2019-03-26T03:14:56.048Z,85.96
2019-03-26T03:15:56.023Z,85.96
2019-03-26T03:16:56.006Z,85.20
2019-03-26T03:17:55.987Z,85.30
2019-03-26T03:18:55.950Z,85.58
2019-03-26T03:19:55.997Z,85.58
2019-03-26T03:20:55.913Z,85.11
2019-03-26T03:21:55.890Z,84.72
2019-03-26T03:22:55.866Z,85.77
2019-03-26T03:23:55.839Z,85.49
2019-03-26T03:24:55.806Z,85.11
2019-03-26T03:25:55.789Z,84.91
2019-03-26T03:26:55.761Z,84.82
2019-03-26T03:27:55.749Z,86.05
2019-03-26T03:28:55.710Z,85.68
2019-03-26T03:29:55.701Z,85.11
2019-03-26T03:30:55.664Z,85.68
2019-03-26T03:31:55.650Z,85.86
2019-03-26T03:32:55.615Z,85.25
2019-03-26T03:33:55.593Z,85.49
2019-03-26T03:34:55.569Z,85.11
2019-03-26T03:35:55.541Z,85.39
2019-03-26T03:36:55.518Z,85.20
2019-03-26T03:37:55.495Z,85.11
2019-03-26T03:38:55.472Z,85.39
2019-03-26T03:39:55.447Z,85.39
2019-03-26T03:40:55.432Z,85.30
2019-03-26T03:41:55.418Z,85.49
2019-03-26T03:42:55.373Z,85.11
2019-03-26T03:43:55.352Z,85.39
2019-03-26T03:44:55.326Z,85.49
2019-03-26T03:45:55.302Z,85.58
2019-03-26T03:46:55.284Z,85.39
2019-03-26T03:47:55.255Z,84.91
2019-03-26T03:48:55.235Z,84.91
2019-03-26T03:49:55.208Z,85.01
2019-03-26T03:50:55.181Z,85.20
2019-03-26T03:51:55.157Z,85.11
2019-03-26T03:52:55.132Z,84.91
2019-03-26T03:53:55.109Z,85.20
2019-03-26T03:54:55.091Z,85.16
2019-03-26T03:55:55.063Z,84.72
2019-03-26T03:56:55.041Z,85.01
2019-03-26T03:57:55.020Z,85.20
2019-03-26T03:58:54.989Z,84.91
2019-03-26T03:59:54.965Z,85.01
2019-03-26T04:00:54.948Z,85.39
2019-03-26T04:01:54.917Z,85.30
2019-03-26T04:02:54.893Z,84.82
2019-03-26T04:03:54.867Z,84.91
2019-03-26T04:04:54.846Z,85.30
2019-03-26T04:06:08.198Z,85.01
2019-03-26T04:06:54.801Z,85.30
2019-03-26T04:07:54.775Z,85.39
2019-03-26T04:08:54.754Z,85.39
2019-03-26T04:09:54.725Z,85.39
2019-03-26T04:10:54.700Z,85.30
2019-03-26T04:11:54.698Z,85.30
2019-03-26T04:12:54.658Z,85.30
2019-03-26T04:13:54.661Z,85.01
2019-03-26T04:14:54.612Z,84.82
2019-03-26T04:15:54.581Z,85.20
2019-03-26T04:16:54.578Z,85.11
2019-03-26T04:17:54.538Z,85.30
2019-03-26T04:18:54.578Z,85.16
2019-03-26T04:19:54.486Z,85.16
2019-03-26T04:20:54.532Z,84.91
2019-03-26T04:21:54.439Z,85.49
2019-03-26T04:22:54.440Z,85.49
2019-03-26T04:23:54.421Z,85.82
2019-03-26T04:24:54.431Z,85.30
2019-03-26T04:25:54.348Z,85.16
2019-03-26T04:26:54.315Z,85.06
2019-03-26T04:27:54.294Z,84.87
2019-03-26T04:28:54.270Z,85.16
2019-03-26T04:29:54.244Z,85.06
2019-03-26T04:30:54.218Z,85.35
2019-03-26T04:31:54.195Z,85.63
2019-03-26T04:32:54.176Z,86.01
2019-03-26T04:33:54.148Z,86.49
2019-03-26T04:34:54.122Z,85.82
2019-03-26T04:35:54.104Z,84.87
2019-03-26T04:36:54.074Z,84.49
2019-03-26T04:37:54.051Z,84.78
2019-03-26T04:38:54.027Z,85.35
2019-03-26T04:39:54.003Z,84.68
2019-03-26T04:40:53.989Z,84.49
2019-03-26T04:41:53.955Z,85.30
2019-03-26T04:42:53.930Z,84.72
2019-03-26T04:43:53.905Z,85.11
2019-03-26T04:44:53.882Z,84.68
2019-03-26T04:45:53.857Z,84.72
2019-03-26T04:46:53.835Z,85.01
2019-03-26T04:47:53.813Z,85.01
2019-03-26T04:48:53.785Z,85.01
2019-03-26T04:49:53.761Z,84.82
2019-03-26T04:50:53.741Z,84.91
2019-03-26T04:51:53.714Z,84.72
2019-03-26T04:52:53.690Z,84.91
2019-03-26T04:53:53.666Z,84.91
2019-03-26T04:54:53.639Z,84.72
2019-03-26T04:55:53.695Z,85.30
2019-03-26T04:56:53.592Z,86.05
2019-03-26T04:57:53.571Z,85.20
2019-03-26T04:58:53.544Z,84.49
2019-03-26T04:59:53.520Z,83.87
2019-03-26T05:00:53.497Z,83.97
2019-03-26T05:01:53.493Z,84.16
2019-03-26T05:02:53.449Z,84.72
2019-03-26T05:03:53.423Z,84.25
2019-03-26T05:04:53.399Z,84.82
2019-03-26T05:05:53.377Z,84.82
2019-03-26T05:06:53.351Z,84.91
2019-03-26T05:07:53.329Z,84.72
2019-03-26T05:08:53.301Z,84.72
2019-03-26T05:09:53.281Z,84.06
2019-03-26T05:10:53.253Z,84.16
2019-03-26T05:11:53.231Z,84.34
2019-03-26T05:12:53.206Z,84.53
2019-03-26T05:13:53.182Z,84.82
2019-03-26T05:14:53.155Z,84.16
2019-03-26T05:15:53.133Z,84.30
2019-03-26T05:16:53.110Z,83.92
2019-03-26T05:17:53.085Z,84.16
2019-03-26T05:18:53.061Z,84.40
2019-03-26T05:19:53.036Z,83.73
2019-03-26T05:20:53.012Z,83.83
2019-03-26T05:21:52.988Z,84.68
2019-03-26T05:22:52.964Z,84.59
2019-03-26T05:23:52.940Z,84.49
2019-03-26T05:24:52.915Z,84.78
2019-03-26T05:25:52.892Z,84.30
2019-03-26T05:26:52.867Z,84.49
2019-03-26T05:27:52.842Z,84.97
2019-03-26T05:28:52.818Z,84.40
2019-03-26T05:29:52.799Z,84.30
2019-03-26T05:30:52.773Z,84.68
2019-03-26T05:31:52.746Z,83.73
2019-03-26T05:32:52.722Z,85.25
2019-03-26T05:33:52.698Z,84.78
2019-03-26T05:34:52.673Z,84.49
2019-03-26T05:35:52.648Z,84.30
2019-03-26T05:36:52.625Z,84.40
2019-03-26T05:37:52.604Z,84.82
2019-03-26T05:38:52.579Z,84.21
2019-03-26T05:39:52.551Z,84.59
2019-03-26T05:40:52.539Z,84.01
2019-03-26T05:41:52.504Z,84.11
2019-03-26T05:42:52.478Z,83.83
2019-03-26T05:43:52.458Z,84.59
2019-03-26T05:44:52.430Z,84.68
2019-03-26T05:45:52.618Z,84.49
2019-03-26T05:46:52.581Z,84.01
2019-03-26T05:47:52.599Z,84.78
2019-03-26T05:48:52.631Z,84.40
2019-03-26T05:49:52.457Z,84.30
2019-03-26T05:50:52.459Z,84.68
2019-03-26T05:51:52.284Z,84.97
2019-03-26T05:52:52.281Z,84.97
2019-03-26T05:53:52.325Z,84.78
2019-03-26T05:54:52.186Z,84.97
2019-03-26T05:55:52.266Z,84.87
2019-03-26T05:56:52.137Z,84.97
2019-03-26T05:57:52.116Z,84.78
2019-03-26T05:58:52.089Z,84.87
2019-03-26T05:59:52.076Z,84.87
2019-03-26T06:00:52.149Z,84.68
2019-03-26T06:01:52.026Z,84.21
2019-03-26T06:02:52.144Z,84.30
2019-03-26T06:03:51.972Z,84.59
2019-03-26T06:04:51.943Z,84.68
2019-03-26T06:05:51.919Z,84.30
2019-03-26T06:07:04.224Z,84.40
2019-03-26T06:07:51.866Z,84.68
2019-03-26T06:08:51.842Z,84.78
2019-03-26T06:09:51.821Z,85.06
2019-03-26T06:10:51.793Z,84.78
2019-03-26T06:11:51.778Z,84.21
2019-03-26T06:12:51.743Z,84.68
2019-03-26T06:13:51.718Z,84.97
2019-03-26T06:14:51.693Z,84.78
2019-03-26T06:15:51.670Z,84.49
2019-03-26T06:16:51.648Z,84.44
2019-03-26T06:17:51.622Z,84.59
2019-03-26T06:18:51.599Z,85.35
2019-03-26T06:19:51.570Z,84.63
2019-03-26T06:20:51.545Z,84.59
2019-03-26T06:21:51.521Z,84.53
2019-03-26T06:22:51.498Z,83.97
2019-03-26T06:23:53.713Z,84.34
2019-03-26T06:24:51.447Z,84.11
2019-03-26T06:25:51.429Z,84.34
2019-03-26T06:26:51.399Z,84.01
2019-03-26T06:27:51.377Z,84.30
2019-03-26T06:28:51.350Z,84.49
2019-03-26T06:29:51.324Z,83.73
2019-03-26T06:30:51.305Z,84.34
2019-03-26T06:31:51.276Z,84.72
2019-03-26T06:32:51.250Z,84.25
2019-03-26T06:33:51.224Z,84.25
2019-03-26T06:34:51.199Z,84.63
2019-03-26T06:35:51.173Z,84.30
2019-03-26T06:36:51.149Z,84.21
2019-03-26T06:37:51.130Z,83.97
2019-03-26T06:38:51.101Z,83.83
2019-03-26T06:39:51.075Z,84.34
2019-03-26T06:40:51.053Z,84.25
2019-03-26T06:41:51.024Z,84.72
2019-03-26T06:42:51.006Z,84.44
2019-03-26T06:43:50.980Z,83.97
2019-03-26T06:44:50.956Z,84.53
2019-03-26T06:45:50.929Z,84.16
2019-03-26T06:46:50.901Z,84.72
2019-03-26T06:47:50.886Z,83.97
2019-03-26T06:48:50.856Z,84.34
2019-03-26T06:49:50.832Z,84.91
2019-03-26T06:50:50.803Z,84.16
2019-03-26T06:51:50.777Z,84.53
2019-03-26T06:52:50.753Z,84.72
2019-03-26T06:53:50.729Z,85.77
2019-03-26T06:54:51.809Z,85.96
2019-03-26T06:55:50.679Z,85.11
2019-03-26T06:56:50.672Z,84.91
2019-03-26T06:57:50.638Z,84.44
2019-03-26T06:58:50.605Z,85.11
2019-03-26T06:59:50.580Z,85.68
2019-03-26T07:00:50.554Z,85.20
2019-03-26T07:01:50.558Z,84.91
2019-03-26T07:02:50.505Z,84.53
2019-03-26T07:03:50.481Z,85.11
2019-03-26T07:04:50.456Z,85.20
2019-03-26T07:05:50.431Z,85.11
2019-03-26T07:06:50.413Z,85.30
2019-03-26T07:07:50.384Z,85.77
2019-03-26T07:08:50.360Z,84.91
2019-03-26T07:09:50.334Z,85.01
2019-03-26T07:10:50.319Z,84.87
2019-03-26T07:11:50.287Z,85.20
2019-03-26T07:12:50.258Z,84.91
2019-03-26T07:13:50.233Z,84.82
2019-03-26T07:14:50.207Z,85.30
2019-03-26T07:15:50.186Z,85.11
2019-03-26T07:16:50.161Z,84.72
2019-03-26T07:17:52.392Z,85.30
2019-03-26T07:18:50.110Z,85.20
2019-03-26T07:19:50.084Z,85.58
2019-03-26T07:20:50.065Z,85.49
2019-03-26T07:21:50.170Z,85.11
2019-03-26T07:22:50.011Z,85.86
2019-03-26T07:23:49.984Z,85.11
2019-03-26T07:24:49.972Z,84.72
2019-03-26T07:25:49.934Z,85.11
2019-03-26T07:26:49.910Z,85.49
2019-03-26T07:27:49.893Z,85.01
2019-03-26T07:28:49.860Z,84.72
2019-03-26T07:29:49.838Z,84.82
2019-03-26T07:30:49.811Z,85.30
2019-03-26T07:31:49.786Z,85.49
2019-03-26T07:32:49.767Z,85.11
2019-03-26T07:33:49.739Z,85.68
2019-03-26T07:34:49.712Z,85.30
2019-03-26T07:35:49.695Z,85.20
2019-03-26T07:36:49.668Z,85.39
2019-03-26T07:37:49.638Z,85.01
2019-03-26T07:38:49.615Z,85.30
2019-03-26T07:39:49.589Z,85.11
2019-03-26T07:40:49.571Z,84.16
2019-03-26T07:41:49.542Z,84.72
2019-03-26T07:42:49.577Z,85.01
2019-03-26T07:43:49.514Z,85.20
2019-03-26T07:44:49.465Z,85.01
2019-03-26T07:45:49.442Z,84.39
2019-03-26T07:46:49.418Z,84.72
2019-03-26T07:47:49.395Z,84.72
2019-03-26T07:48:49.375Z,85.15
2019-03-26T07:49:49.344Z,84.72
2019-03-26T07:50:49.319Z,84.16
2019-03-26T07:51:49.294Z,85.05
2019-03-26T07:52:49.271Z,84.77
2019-03-26T07:53:49.245Z,84.48
2019-03-26T07:54:49.221Z,84.39
2019-03-26T07:55:49.202Z,84.29
2019-03-26T07:56:49.171Z,84.39
2019-03-26T07:57:49.148Z,84.86
2019-03-26T07:58:49.124Z,84.39
2019-03-26T07:59:49.098Z,84.77
2019-03-26T08:00:49.072Z,84.58
2019-03-26T08:01:49.048Z,84.39
2019-03-26T08:02:49.022Z,84.77
2019-03-26T08:03:49.002Z,84.86
2019-03-26T08:04:48.978Z,84.39
2019-03-26T08:05:48.958Z,84.10
2019-03-26T08:06:48.926Z,84.10
2019-03-26T08:07:58.189Z,84.01
2019-03-26T08:08:48.882Z,84.10
2019-03-26T08:09:48.854Z,84.01
2019-03-26T08:10:48.828Z,84.43
2019-03-26T08:11:48.809Z,84.14
2019-03-26T08:12:48.791Z,84.33
2019-03-26T08:13:48.768Z,84.33
2019-03-26T08:14:48.750Z,84.81
2019-03-26T08:15:48.709Z,84.24
2019-03-26T08:16:48.686Z,84.33
2019-03-26T08:17:48.666Z,84.24
2019-03-26T08:18:48.642Z,84.24
2019-03-26T08:19:48.616Z,83.86
2019-03-26T08:20:48.591Z,83.48
2019-03-26T08:21:48.570Z,84.24
2019-03-26T08:22:48.545Z,83.76
2019-03-26T08:23:48.523Z,83.10
2019-03-26T08:24:48.494Z,83.19
2019-03-26T08:25:48.474Z,83.58
2019-03-26T08:26:48.447Z,84.05
2019-03-26T08:27:48.430Z,83.86
2019-03-26T08:28:48.402Z,83.67
2019-03-26T08:29:48.377Z,83.58
2019-03-26T08:30:50.168Z,83.67
2019-03-26T08:31:48.330Z,83.29
2019-03-26T08:32:48.307Z,83.15
2019-03-26T08:33:48.282Z,83.19
2019-03-26T08:34:48.258Z,83.39
2019-03-26T08:35:48.236Z,83.29
2019-03-26T08:36:48.211Z,83.39
2019-03-26T08:37:48.187Z,83.48
2019-03-26T08:38:48.163Z,82.81
2019-03-26T08:39:48.137Z,84.24
2019-03-26T08:40:48.114Z,83.48
2019-03-26T08:41:48.095Z,83.67
2019-03-26T08:42:48.068Z,83.29
2019-03-26T08:43:48.047Z,82.91
2019-03-26T08:44:48.023Z,83.14
2019-03-26T08:45:47.995Z,83.90
2019-03-26T08:46:47.976Z,83.23
2019-03-26T08:47:47.948Z,83.33
2019-03-26T08:48:47.924Z,82.95
2019-03-26T08:49:47.900Z,83.52
2019-03-26T08:50:47.877Z,82.67
2019-03-26T08:51:47.854Z,83.18
2019-03-26T08:52:47.834Z,83.23
2019-03-26T08:53:47.817Z,83.37
2019-03-26T08:54:47.786Z,83.09
2019-03-26T08:55:47.768Z,83.09
2019-03-26T08:56:47.741Z,82.99
2019-03-26T08:57:47.717Z,82.80
2019-03-26T08:58:47.692Z,83.37
2019-03-26T08:59:47.671Z,83.47
2019-03-26T09:00:47.660Z,82.76
2019-03-26T09:01:47.630Z,83.42
2019-03-26T09:02:47.604Z,83.33
2019-03-26T09:03:47.580Z,83.23
2019-03-26T09:04:47.560Z,83.71
2019-03-26T09:05:47.536Z,83.90
2019-03-26T09:06:47.512Z,83.71
2019-03-26T09:07:47.497Z,83.52
2019-03-26T09:08:47.472Z,83.52
2019-03-26T09:09:47.448Z,83.95
2019-03-26T09:10:51.969Z,83.48
2019-03-26T09:11:47.398Z,83.67
2019-03-26T09:12:47.374Z,84.05
2019-03-26T09:13:47.353Z,83.76
2019-03-26T09:14:47.327Z,84.14
2019-03-26T09:15:47.308Z,83.86
2019-03-26T09:16:47.283Z,84.05
2019-03-26T09:17:47.285Z,84.05
2019-03-26T09:18:47.237Z,84.52
2019-03-26T09:19:47.214Z,84.43
2019-03-26T09:20:47.188Z,84.43
2019-03-26T09:21:47.168Z,83.67
2019-03-26T09:22:47.141Z,84.91
2019-03-26T09:23:47.118Z,84.24
2019-03-26T09:24:47.094Z,84.91
2019-03-26T09:25:47.079Z,84.62
2019-03-26T09:26:47.047Z,84.95
2019-03-26T09:27:47.024Z,85.05
2019-03-26T09:28:47.960Z,85.62
2019-03-26T09:29:46.978Z,84.86
2019-03-26T09:30:46.953Z,85.43
2019-03-26T09:31:46.931Z,85.43
2019-03-26T09:32:46.913Z,85.19
2019-03-26T09:33:46.882Z,85.15
2019-03-26T09:34:46.865Z,85.34
2019-03-26T09:35:46.836Z,85.34
2019-03-26T09:36:46.812Z,85.24
2019-03-26T09:37:46.787Z,85.43
2019-03-26T09:38:46.762Z,85.72
2019-03-26T09:39:46.740Z,85.72
2019-03-26T09:40:46.716Z,84.67
2019-03-26T09:41:46.692Z,85.24
2019-03-26T09:42:46.671Z,85.24
2019-03-26T09:43:46.644Z,85.53
2019-03-26T09:44:46.627Z,85.24
2019-03-26T09:45:46.600Z,85.05
2019-03-26T09:46:46.572Z,85.10
2019-03-26T09:47:46.547Z,84.81
2019-03-26T09:48:46.529Z,85.10
2019-03-26T09:49:46.499Z,85.15
2019-03-26T09:50:46.475Z,84.91
2019-03-26T09:51:46.451Z,85.19
2019-03-26T09:52:46.429Z,85.19
2019-03-26T09:53:46.404Z,84.43
2019-03-26T09:54:46.381Z,84.81
2019-03-26T09:55:46.355Z,85.28
2019-03-26T09:56:46.333Z,84.91
2019-03-26T09:57:46.321Z,84.43
2019-03-26T09:58:46.290Z,84.33
2019-03-26T09:59:46.261Z,84.81
2019-03-26T10:00:46.323Z,84.91
2019-03-26T10:01:46.214Z,84.62
2019-03-26T10:02:46.192Z,84.43
2019-03-26T10:03:46.164Z,84.05
2019-03-26T10:04:46.144Z,84.81
2019-03-26T10:05:46.123Z,84.43
2019-03-26T10:06:46.099Z,84.81
2019-03-26T10:07:46.069Z,84.62
2019-03-26T10:08:52.247Z,85.38
2019-03-26T10:09:46.023Z,85.28
2019-03-26T10:10:46.000Z,84.91
2019-03-26T10:11:45.973Z,84.62
2019-03-26T10:12:45.956Z,84.43
2019-03-26T10:13:45.927Z,84.33
2019-03-26T10:14:45.900Z,85.14
2019-03-26T10:15:45.881Z,84.85
2019-03-26T10:16:45.854Z,85.04
2019-03-26T10:17:45.832Z,84.38
2019-03-26T10:18:45.806Z,84.76
2019-03-26T10:19:45.788Z,84.66
2019-03-26T10:20:45.766Z,84.38
2019-03-26T10:21:45.736Z,84.09
2019-03-26T10:22:45.713Z,84.09
2019-03-26T10:23:45.689Z,84.09
2019-03-26T10:24:45.686Z,84.28
2019-03-26T10:25:45.644Z,84.19
2019-03-26T10:26:45.618Z,84.09
2019-03-26T10:27:45.594Z,83.81
2019-03-26T10:28:45.570Z,84.47
2019-03-26T10:29:45.549Z,85.04
2019-03-26T10:30:45.523Z,85.24
2019-03-26T10:31:45.503Z,84.76
2019-03-26T10:32:45.481Z,84.38
2019-03-26T10:33:45.454Z,84.13
2019-03-26T10:34:45.433Z,84.52
2019-03-26T10:35:45.406Z,84.33
2019-03-26T10:36:45.386Z,84.33
2019-03-26T10:37:45.361Z,84.46
2019-03-26T10:38:45.337Z,83.80
2019-03-26T10:39:45.321Z,84.27
2019-03-26T10:40:45.310Z,83.80
2019-03-26T10:41:45.275Z,83.70
2019-03-26T10:42:45.247Z,84.08
2019-03-26T10:43:45.223Z,83.98
2019-03-26T10:44:45.203Z,83.80
2019-03-26T10:45:45.182Z,83.98
2019-03-26T10:46:45.157Z,83.51
2019-03-26T10:47:45.144Z,83.98
2019-03-26T10:48:45.118Z,83.36
2019-03-26T10:49:45.093Z,83.50
2019-03-26T10:50:45.067Z,83.40
2019-03-26T10:51:45.046Z,82.92
2019-03-26T10:52:45.044Z,82.64
2019-03-26T10:53:45.005Z,82.45
2019-03-26T10:54:44.982Z,83.31
2019-03-26T10:55:44.961Z,82.41
2019-03-26T10:56:44.939Z,82.60
2019-03-26T10:57:44.922Z,82.69
2019-03-26T10:58:44.894Z,83.17
2019-03-26T10:59:44.876Z,82.79
2019-03-26T11:00:44.854Z,83.17
2019-03-26T11:01:44.833Z,82.56
2019-03-26T11:02:44.811Z,83.22
2019-03-26T11:03:44.794Z,82.93
2019-03-26T11:04:44.776Z,82.84
2019-03-26T11:05:44.745Z,82.27
2019-03-26T11:06:44.725Z,83.22
2019-03-26T11:07:44.704Z,83.03
2019-03-26T11:08:45.315Z,83.13
2019-03-26T11:09:44.665Z,83.45
2019-03-26T11:10:44.641Z,82.60
2019-03-26T11:11:44.616Z,82.50
2019-03-26T11:12:44.595Z,82.60
2019-03-26T11:13:44.590Z,82.79
2019-03-26T11:14:44.602Z,83.07
2019-03-26T11:15:44.537Z,82.98
2019-03-26T11:16:44.572Z,82.08
2019-03-26T11:17:44.493Z,83.41
2019-03-26T11:18:44.466Z,82.61
2019-03-26T11:19:46.361Z,83.37
2019-03-26T11:20:44.423Z,83.28
2019-03-26T11:21:44.403Z,83.03
2019-03-26T11:22:44.383Z,83.47
2019-03-26T11:23:44.358Z,83.85
2019-03-26T11:24:44.334Z,83.18
2019-03-26T11:25:44.314Z,83.56
2019-03-26T11:26:44.291Z,83.80
2019-03-26T11:27:44.267Z,83.70
2019-03-26T11:28:44.253Z,83.70
2019-03-26T11:29:44.224Z,83.70
2019-03-26T11:30:44.200Z,84.75
2019-03-26T11:31:44.179Z,84.56
2019-03-26T11:32:44.157Z,83.03
2019-03-26T11:33:44.136Z,83.98
2019-03-26T11:34:44.114Z,83.89
2019-03-26T11:35:44.094Z,83.70
2019-03-26T11:36:44.071Z,84.36
2019-03-26T11:37:44.050Z,83.98
2019-03-26T11:38:44.025Z,83.80
2019-03-26T11:39:44.010Z,83.94
2019-03-26T11:40:43.982Z,83.56
2019-03-26T11:41:43.960Z,83.94
2019-03-26T11:42:43.938Z,83.75
2019-03-26T11:43:43.916Z,83.94
2019-03-26T11:44:43.895Z,83.85
2019-03-26T11:45:43.872Z,84.42
2019-03-26T11:46:43.852Z,84.52
2019-03-26T11:47:43.828Z,84.89
2019-03-26T11:48:43.805Z,85.08
2019-03-26T11:49:43.781Z,84.61
2019-03-26T11:50:43.758Z,84.70
2019-03-26T11:51:43.741Z,85.18
2019-03-26T11:52:43.716Z,85.08
2019-03-26T11:53:43.694Z,85.18
2019-03-26T11:54:43.674Z,84.80
2019-03-26T11:55:43.648Z,84.99
2019-03-26T11:56:43.626Z,85.37
2019-03-26T11:57:43.605Z,86.04
2019-03-26T11:58:43.585Z,84.70
2019-03-26T11:59:43.564Z,85.37
2019-03-26T12:00:43.540Z,85.75
2019-03-26T12:01:43.514Z,85.18
2019-03-26T12:02:43.491Z,84.80
2019-03-26T12:03:43.471Z,85.08
2019-03-26T12:04:43.448Z,85.75
2019-03-26T12:05:43.426Z,85.85
2019-03-26T12:06:43.407Z,85.85
2019-03-26T12:07:43.381Z,85.56
2019-03-26T12:08:43.401Z,85.75
2019-03-26T12:09:46.665Z,85.85
2019-03-26T12:10:43.319Z,85.75
2019-03-26T12:11:43.297Z,85.94
2019-03-26T12:12:43.270Z,85.75
2019-03-26T12:13:43.249Z,84.95
2019-03-26T12:14:43.261Z,85.85
2019-03-26T12:15:43.203Z,84.99
2019-03-26T12:16:43.181Z,84.89
2019-03-26T12:17:43.165Z,85.47
2019-03-26T12:18:43.136Z,85.75
2019-03-26T12:19:43.114Z,85.99
2019-03-26T12:20:43.093Z,85.52
2019-03-26T12:21:43.070Z,85.56
2019-03-26T12:22:43.047Z,86.04
2019-03-26T12:23:43.025Z,85.18
2019-03-26T12:24:43.006Z,85.37
2019-03-26T12:25:42.979Z,85.94
2019-03-26T12:26:42.957Z,85.37
2019-03-26T12:27:42.942Z,85.56
2019-03-26T12:28:42.914Z,85.61
2019-03-26T12:29:42.923Z,85.66
2019-03-26T12:30:42.869Z,85.37
2019-03-26T12:31:42.852Z,85.75
2019-03-26T12:32:42.824Z,85.61
2019-03-26T12:33:42.801Z,85.71
2019-03-26T12:34:42.780Z,85.42
2019-03-26T12:35:42.755Z,85.61
2019-03-26T12:36:42.734Z,85.99
2019-03-26T12:37:42.734Z,85.52
2019-03-26T12:38:42.695Z,86.09
2019-03-26T12:39:44.258Z,85.42
2019-03-26T12:40:42.642Z,84.95
2019-03-26T12:41:42.621Z,85.61
2019-03-26T12:42:42.598Z,85.71
2019-03-26T12:43:42.577Z,85.80
2019-03-26T12:44:42.573Z,86.18
2019-03-26T12:45:42.537Z,85.61
2019-03-26T12:46:42.506Z,85.61
2019-03-26T12:47:42.483Z,86.18
2019-03-26T12:48:42.462Z,85.24
2019-03-26T12:49:42.438Z,86.28
2019-03-26T12:50:42.416Z,86.18
2019-03-26T12:51:42.395Z,86.04